Time;durP1;ratioP1;P1;durP2;ratioP2;P2;SDS_P1;SDS_P2;PMS_P1;PMS_P2;Temp;Humidity;BMP_temperature;BMP_pressure;BME280_temperature;BME280_humidity;BME280_pressure;Samples;Min_cycle;Max_cycle;Signal;HPM_P1;HPM_P2
2023/07/31 06:05:28;;;;;;;4.55;1.77;;;18.60;99.90;;;;;;4938864;23;20056;-79
2023/07/31 06:07:54;;;;;;;2.95;1.20;;;18.60;99.90;;;;;;4910637;29;20420;-79
2023/07/31 06:10:21;;;;;;;4.18;1.40;;;18.60;99.90;;;;;;4912091;29;20056;-78
2023/07/31 06:12:48;;;;;;;6.43;1.70;;;18.70;99.90;;;;;;4922792;29;20056;-80
2023/07/31 06:15:15;;;;;;;4.25;1.38;;;18.70;99.90;;;;;;4920591;29;20057;-81
2023/07/31 06:17:42;;;;;;;5.72;1.50;;;18.80;99.90;;;;;;4915455;29;20048;-81
2023/07/31 06:20:10;;;;;;;4.95;1.40;;;18.90;99.90;;;;;;4916675;29;20051;-78
2023/07/31 06:22:36;;;;;;;6.32;1.25;;;19.00;99.90;;;;;;4901140;29;20056;-79
2023/07/31 06:25:04;;;;;;;6.13;1.50;;;19.10;99.90;;;;;;4903583;29;20097;-80
2023/07/31 06:27:30;;;;;;;4.97;1.30;;;19.20;99.90;;;;;;4918532;29;20080;-80
2023/07/31 06:29:57;;;;;;;8.13;1.40;;;19.20;99.90;;;;;;4904120;29;20044;-80
2023/07/31 06:32:24;;;;;;;5.75;1.33;;;19.20;99.90;;;;;;4903825;29;20055;-80
2023/07/31 06:34:51;;;;;;;3.72;1.45;;;19.20;99.90;;;;;;4902772;29;20052;-80
2023/07/31 06:37:18;;;;;;;3.05;1.55;;;19.30;99.90;;;;;;4903503;29;20472;-80
2023/07/31 06:39:45;;;;;;;4.57;1.30;;;19.30;99.90;;;;;;4903750;29;20064;-78
2023/07/31 06:42:11;;;;;;;3.30;1.63;;;19.30;99.90;;;;;;4900355;29;20058;-78
2023/07/31 06:44:38;;;;;;;2.30;1.10;;;19.30;99.90;;;;;;4902414;29;20060;-80
2023/07/31 06:47:05;;;;;;;4.05;1.60;;;19.40;99.90;;;;;;4903441;29;20104;-78
2023/07/31 06:49:32;;;;;;;6.28;1.60;;;19.40;99.90;;;;;;4902462;29;20052;-78
2023/07/31 06:51:58;;;;;;;5.40;1.20;;;19.40;99.90;;;;;;4901982;29;20432;-79
2023/07/31 06:54:25;;;;;;;3.13;1.33;;;19.40;99.90;;;;;;4900971;29;20080;-79
2023/07/31 06:56:52;;;;;;;3.40;1.30;;;19.40;99.90;;;;;;4900694;29;20095;-79
2023/07/31 06:59:18;;;;;;;5.78;1.55;;;19.50;99.90;;;;;;4901803;29;20084;-79
2023/07/31 07:01:45;;;;;;;5.55;1.73;;;19.60;99.90;;;;;;4901278;29;20053;-78
2023/07/31 07:04:12;;;;;;;7.93;1.98;;;19.70;99.90;;;;;;4892035;29;20144;-79
2023/07/31 07:06:38;;;;;;;5.97;1.25;;;19.80;99.90;;;;;;4897221;29;20056;-80
2023/07/31 07:09:05;;;;;;;5.30;1.63;;;19.80;99.90;;;;;;4898731;29;20050;-80
2023/07/31 07:11:33;;;;;;;4.40;1.50;;;19.90;99.90;;;;;;4900262;29;20100;-80
2023/07/31 07:14:00;;;;;;;3.72;1.23;;;20.00;99.90;;;;;;4891909;29;20045;-78
2023/07/31 07:16:29;;;;;;;6.65;1.42;;;20.10;99.90;;;;;;4897594;29;20048;-79
2023/07/31 07:18:55;;;;;;;5.82;1.50;;;20.20;99.90;;;;;;4895713;29;20084;-79
2023/07/31 07:21:31;;;;;;;5.68;1.67;;;20.20;99.90;;;;;;4896735;29;20080;-80
2023/07/31 07:23:57;;;;;;;4.85;1.60;;;20.30;99.90;;;;;;4894643;29;20496;-80
2023/07/31 07:26:24;;;;;;;6.15;1.50;;;20.30;99.90;;;;;;4896187;29;20151;-79
2023/07/31 07:28:51;;;;;;;5.00;1.58;;;20.40;99.90;;;;;;4889822;29;20314;-80
2023/07/31 07:31:17;;;;;;;3.92;1.30;;;20.40;99.90;;;;;;4893271;29;20085;-80
2023/07/31 07:33:45;;;;;;;6.10;1.70;;;20.50;99.90;;;;;;4893136;29;20112;-79
2023/07/31 07:36:13;;;;;;;3.88;1.10;;;20.60;99.90;;;;;;4895494;29;20127;-79
2023/07/31 07:38:40;;;;;;;5.82;1.50;;;20.70;99.90;;;;;;4895512;29;20049;-79
2023/07/31 07:41:07;;;;;;;4.78;2.00;;;20.80;99.90;;;;;;4898185;29;20104;-80
2023/07/31 07:43:34;;;;;;;3.38;1.20;;;20.90;99.90;;;;;;4895199;29;20135;-80
2023/07/31 07:46:01;;;;;;;5.13;1.95;;;21.00;99.90;;;;;;4895124;29;20564;-80
2023/07/31 07:48:27;;;;;;;4.97;1.50;;;21.00;99.90;;;;;;4896525;29;20119;-80
2023/07/31 07:50:54;;;;;;;5.47;1.27;;;21.10;99.90;;;;;;4897949;29;20079;-80
2023/07/31 07:53:21;;;;;;;3.78;1.55;;;21.10;99.90;;;;;;4898245;29;20044;-80
2023/07/31 07:55:47;;;;;;;4.70;1.48;;;21.10;99.90;;;;;;4900170;29;20108;-79
2023/07/31 07:58:14;;;;;;;3.83;1.15;;;21.10;99.90;;;;;;4901554;29;20045;-80
2023/07/31 08:00:41;;;;;;;2.55;1.20;;;21.20;99.90;;;;;;4900744;29;20080;-80
2023/07/31 08:03:08;;;;;;;6.97;1.52;;;21.20;99.90;;;;;;4900773;29;20116;-80
2023/07/31 08:05:35;;;;;;;3.40;1.20;;;21.20;99.90;;;;;;4900351;29;20427;-80
2023/07/31 08:08:01;;;;;;;6.32;1.55;;;21.30;99.90;;;;;;4900680;29;20056;-80
2023/07/31 08:10:28;;;;;;;6.13;1.50;;;21.40;99.90;;;;;;4899700;29;20080;-80
2023/07/31 08:12:55;;;;;;;7.22;1.40;;;21.40;99.90;;;;;;4895605;29;20124;-80
2023/07/31 08:15:21;;;;;;;5.55;1.50;;;21.40;99.90;;;;;;4896431;29;20053;-80
2023/07/31 08:17:48;;;;;;;2.88;1.25;;;21.50;99.90;;;;;;4903838;29;20067;-80
2023/07/31 08:20:15;;;;;;;5.70;1.50;;;21.40;99.90;;;;;;4897680;29;20048;-79
2023/07/31 08:22:42;;;;;;;3.88;1.20;;;21.40;99.90;;;;;;4895085;29;20049;-80
2023/07/31 08:25:08;;;;;;;5.35;2.03;;;21.40;99.90;;;;;;4895354;29;20404;-80
2023/07/31 08:27:35;;;;;;;4.28;1.40;;;21.30;99.90;;;;;;4897669;29;20056;-80
2023/07/31 08:30:03;;;;;;;7.13;1.55;;;21.20;99.90;;;;;;4899097;29;20044;-80
2023/07/31 08:32:29;;;;;;;7.18;1.40;;;21.20;99.90;;;;;;4898085;29;20076;-80
2023/07/31 08:34:56;;;;;;;4.05;1.45;;;21.10;99.90;;;;;;4897174;29;20055;-80
2023/07/31 08:37:23;;;;;;;4.90;1.23;;;21.10;99.90;;;;;;4889493;29;20064;-81
2023/07/31 08:39:49;;;;;;;4.75;1.40;;;21.10;99.90;;;;;;4892263;29;20053;-80
2023/07/31 08:42:16;;;;;;;6.38;1.50;;;21.20;99.90;;;;;;4896852;29;20060;-80
2023/07/31 08:44:44;;;;;;;3.00;1.50;;;21.20;99.90;;;;;;4894189;29;20117;-80
2023/07/31 08:47:12;;;;;;;3.80;1.55;;;21.40;99.90;;;;;;4898358;29;20384;-80
2023/07/31 08:49:40;;;;;;;4.03;1.50;;;21.40;99.90;;;;;;4896725;29;20080;-80
2023/07/31 08:52:07;;;;;;;5.32;1.63;;;21.60;99.90;;;;;;4892080;29;20092;-79
2023/07/31 08:54:34;;;;;;;5.40;1.60;;;21.80;99.90;;;;;;4896099;29;20055;-81
2023/07/31 08:57:01;;;;;;;3.20;1.45;;;21.90;99.90;;;;;;4896653;29;20053;-81
2023/07/31 08:59:31;;;;;;;4.60;1.42;;;22.10;99.90;;;;;;4894085;29;20056;-80
2023/07/31 09:02:03;;;;;;;5.73;1.43;;;22.20;99.90;;;;;;4904987;29;20045;-80
2023/07/31 09:04:31;;;;;;;4.40;1.38;;;22.20;99.90;;;;;;4894161;29;20053;-80
2023/07/31 09:07:03;;;;;;;4.72;1.20;;;22.30;99.90;;;;;;4895701;29;20143;-80
2023/07/31 09:09:33;;;;;;;3.25;1.48;;;22.40;99.90;;;;;;4900449;29;20053;-80
2023/07/31 09:12:00;;;;;;;3.63;1.20;;;22.40;99.90;;;;;;4900772;29;20518;-80
2023/07/31 09:14:27;;;;;;;3.10;1.48;;;22.40;99.90;;;;;;4903954;29;20048;-80
2023/07/31 09:16:55;;;;;;;4.63;1.38;;;22.50;99.90;;;;;;4917621;29;20052;-80
2023/07/31 09:19:29;;;;;;;4.53;1.30;;;22.50;99.90;;;;;;4901224;29;20481;-81
2023/07/31 09:21:55;;;;;;;5.97;1.60;;;22.50;99.90;;;;;;4903897;29;20064;-79
2023/07/31 09:24:30;;;;;;;3.80;1.48;;;22.40;99.90;;;;;;4903355;29;20056;-80
2023/07/31 09:26:58;;;;;;;3.67;1.42;;;22.50;99.90;;;;;;4897622;29;20117;-79
2023/07/31 09:29:26;;;;;;;3.90;1.67;;;22.50;99.90;;;;;;4895287;29;20136;-80
2023/07/31 09:31:54;;;;;;;6.32;1.67;;;22.50;99.90;;;;;;4898621;29;20044;-80
2023/07/31 09:34:30;;;;;;;3.80;1.38;;;22.50;99.90;;;;;;4881045;29;20053;-80
2023/07/31 09:37:01;;;;;;;4.70;1.60;;;22.50;99.90;;;;;;4876757;29;20045;-80
2023/07/31 09:39:29;;;;;;;4.43;1.52;;;22.50;99.90;;;;;;4900178;29;20935;-80
2023/07/31 09:41:57;;;;;;;4.53;1.35;;;22.50;99.90;;;;;;4916463;29;20121;-80
2023/07/31 09:44:43;;;;;;;4.53;1.88;;;22.50;99.90;;;;;;4903884;29;20084;-80
2023/07/31 09:47:23;;;;;;;5.75;1.33;;;22.50;99.90;;;;;;4901412;29;20049;-80
2023/07/31 09:49:51;;;;;;;5.57;1.30;;;22.50;99.90;;;;;;4901783;29;20057;-80
2023/07/31 09:52:18;;;;;;;6.55;1.90;;;22.60;99.90;;;;;;4898915;29;20105;-80
2023/07/31 09:54:45;;;;;;;4.88;1.58;;;22.60;99.90;;;;;;4899886;29;20076;-80
2023/07/31 09:57:12;;;;;;;6.05;1.85;;;22.60;99.90;;;;;;4901248;29;20055;-80
2023/07/31 09:59:40;;;;;;;4.50;1.40;;;22.70;99.90;;;;;;4902647;29;20476;-80
2023/07/31 10:02:14;;;;;;;4.13;1.30;;;22.70;99.90;;;;;;4903004;29;20108;-81
2023/07/31 10:04:43;;;;;;;5.57;1.80;;;22.80;99.90;;;;;;4902119;29;20127;-79
2023/07/31 10:07:14;;;;;;;6.55;1.98;;;22.90;99.90;;;;;;4902892;29;20108;-79
2023/07/31 10:09:42;;;;;;;5.50;1.50;;;23.00;99.90;;;;;;4903683;29;20065;-79
2023/07/31 10:12:11;;;;;;;5.50;1.83;;;23.00;99.90;;;;;;4898296;29;20089;-80
2023/07/31 10:14:39;;;;;;;3.20;1.70;;;23.00;99.90;;;;;;4904556;29;20080;-79
2023/07/31 10:17:08;;;;;;;6.18;1.40;;;23.10;99.90;;;;;;4904818;29;20041;-80
2023/07/31 10:19:35;;;;;;;5.03;1.33;;;23.10;99.90;;;;;;4898123;29;20049;-80
2023/07/31 10:22:04;;;;;;;4.22;1.88;;;23.10;99.90;;;;;;4899779;29;20052;-81
2023/07/31 10:24:32;;;;;;;5.68;1.85;;;23.10;99.90;;;;;;4902967;29;20107;-80
2023/07/31 10:27:01;;;;;;;5.03;1.75;;;23.10;99.90;;;;;;4903107;29;20056;-80
2023/07/31 10:29:29;;;;;;;4.30;1.88;;;23.20;99.90;;;;;;4903731;29;20052;-80
2023/07/31 10:31:58;;;;;;;6.25;1.85;;;23.30;99.90;;;;;;4898596;29;20052;-80
2023/07/31 10:34:25;;;;;;;2.72;1.73;;;23.40;99.90;;;;;;4899128;29;20472;-79
2023/07/31 10:37:44;;;;;;;4.03;1.60;;;23.50;99.90;;;;;;4904061;29;20048;-80
2023/07/31 10:40:15;;;;;;;3.72;1.50;;;23.60;99.90;;;;;;4862073;29;20045;-79
2023/07/31 10:42:52;;;;;;;5.47;1.52;;;23.70;99.90;;;;;;4897423;29;20473;-79
2023/07/31 10:45:42;;;;;;;4.38;1.42;;;23.70;99.90;;;;;;4895264;29;20485;-80
2023/07/31 10:48:18;;;;;;;5.70;1.53;;;23.80;99.90;;;;;;4897355;29;20052;-80
2023/07/31 10:51:07;;;;;;;5.47;1.88;;;23.80;99.90;;;;;;4899915;29;20092;-79
2023/07/31 10:53:34;;;;;;;4.75;1.63;;;23.80;99.90;;;;;;4888827;29;20060;-79
2023/07/31 10:56:13;;;;;;;4.20;1.70;;;23.80;99.90;;;;;;4892680;29;20049;-77
2023/07/31 10:58:44;;;;;;;6.50;2.27;;;23.80;99.90;;;;;;4909827;29;20092;-79
2023/07/31 11:01:10;;;;;;;;;;;23.80;99.90;;;;;;4913342;29;20341;-79
2023/07/31 11:03:44;;;;;;;3.65;1.35;;;23.90;99.90;;;;;;4903732;29;19995;-80
2023/07/31 11:06:11;;;;;;;6.18;1.80;;;23.90;99.90;;;;;;4899017;29;20430;-79
2023/07/31 11:08:49;;;;;;;5.40;1.70;;;23.90;99.90;;;;;;4900794;29;20059;-80
2023/07/31 11:11:17;;;;;;;5.05;1.75;;;24.00;99.90;;;;;;4895615;29;20136;-80
2023/07/31 11:13:52;;;;;;;4.38;1.60;;;24.00;99.90;;;;;;4893566;29;20053;-81
2023/07/31 11:16:24;;;;;;;5.15;1.77;;;24.00;99.90;;;;;;4907647;29;20053;-80
2023/07/31 11:18:53;;;;;;;3.22;1.73;;;24.00;99.90;;;;;;4893721;29;20093;-80
2023/07/31 11:21:24;;;;;;;6.63;1.70;;;24.00;99.90;;;;;;4892862;29;20052;-80
2023/07/31 11:23:53;;;;;;;4.78;1.70;;;24.10;99.90;;;;;;4892789;29;20413;-80
2023/07/31 11:26:20;;;;;;;3.25;1.45;;;24.10;99.90;;;;;;4896279;29;20445;-79
2023/07/31 11:28:48;;;;;;;7.45;2.00;;;24.10;99.90;;;;;;4892086;29;20060;-80
2023/07/31 11:31:16;;;;;;;6.75;2.15;;;24.20;99.90;;;;;;4893076;29;20426;-81
2023/07/31 11:33:44;;;;;;;4.95;1.92;;;24.20;99.90;;;;;;4894845;29;20095;-81
2023/07/31 11:36:18;;;;;;;6.88;2.17;;;24.30;99.90;;;;;;4896794;29;20048;-81
2023/07/31 11:38:46;;;;;;;4.18;1.67;;;24.40;99.90;;;;;;4892570;29;20053;-80
2023/07/31 11:41:16;;;;;;;5.00;2.03;;;24.50;99.90;;;;;;4895808;29;20056;-81
2023/07/31 11:43:43;;;;;;;;;;;24.50;99.90;;;;;;4893321;29;20057;-79
2023/07/31 11:46:09;;;;;;;3.92;1.63;;;24.60;99.90;;;;;;4894840;29;19929;-79
2023/07/31 11:48:37;;;;;;;6.18;1.42;;;24.60;99.90;;;;;;4892953;29;20497;-80
2023/07/31 11:51:05;;;;;;;3.78;1.65;;;24.70;99.90;;;;;;4892674;29;20053;-80
2023/07/31 11:53:42;;;;;;;4.07;1.83;;;24.70;99.90;;;;;;4888977;29;20405;-79
2023/07/31 11:56:12;;;;;;;5.75;1.60;;;24.80;99.90;;;;;;4889206;29;20472;-79
2023/07/31 11:58:40;;;;;;;;;;;24.80;99.90;;;;;;4891783;29;20044;-80
2023/07/31 12:01:07;;;;;;;3.80;2.00;;;24.90;99.90;;;;;;4891195;29;19923;-78
2023/07/31 12:03:34;;;;;;;3.50;1.55;;;24.90;99.90;;;;;;4889738;29;20531;-80
2023/07/31 12:06:02;;;;;;;3.67;1.80;;;24.90;99.90;;;;;;4892450;29;20068;-80
2023/07/31 12:08:29;;;;;;;3.95;1.67;;;25.00;99.90;;;;;;4892853;29;20504;-79
2023/07/31 12:11:05;;;;;;;4.53;1.75;;;25.00;99.90;;;;;;4891755;29;20100;-79
2023/07/31 12:13:33;;;;;;;3.65;1.63;;;24.90;99.90;;;;;;4890400;29;20489;-79
2023/07/31 12:16:03;;;;;;;4.63;1.98;;;24.90;99.90;;;;;;4894314;29;20053;-79
2023/07/31 12:18:34;;;;;;;6.80;1.70;;;24.90;99.90;;;;;;4890575;29;20048;-79
2023/07/31 12:21:04;;;;;;;6.43;1.77;;;24.90;99.90;;;;;;4892872;29;20080;-81
2023/07/31 12:23:32;;;;;;;4.88;1.70;;;25.00;99.90;;;;;;4893313;29;20116;-80
2023/07/31 12:26:10;;;;;;;3.95;2.10;;;25.00;99.90;;;;;;4893929;29;20057;-81
2023/07/31 12:28:41;;;;;;;5.13;1.85;;;24.90;99.90;;;;;;4909850;29;20108;-80
2023/07/31 12:31:13;;;;;;;4.78;1.75;;;24.80;99.90;;;;;;4905487;29;20109;-80
2023/07/31 12:33:41;;;;;;;5.45;2.15;;;24.80;99.90;;;;;;4891572;29;20076;-80
2023/07/31 12:36:12;;;;;;;4.90;1.95;;;24.80;99.90;;;;;;4891370;29;20064;-81
2023/07/31 12:38:39;;;;;;;5.22;1.85;;;24.80;99.90;;;;;;4892017;29;20425;-81
2023/07/31 12:41:09;;;;;;;6.32;2.20;;;24.80;99.90;;;;;;4892094;29;20061;-80
2023/07/31 12:43:37;;;;;;;5.15;2.08;;;24.80;99.90;;;;;;4891383;29;20477;-80
2023/07/31 12:46:04;;;;;;;5.72;2.28;;;24.70;99.90;;;;;;4891610;29;20505;-81
2023/07/31 12:48:32;;;;;;;5.78;2.38;;;24.80;99.90;;;;;;4893700;29;20052;-81
2023/07/31 12:50:59;;;;;;;6.60;2.20;;;24.70;99.90;;;;;;4892276;29;20108;-80
2023/07/31 12:53:25;;;;;;;8.98;1.98;;;24.70;99.90;;;;;;4890585;29;20076;-81
2023/07/31 12:55:52;;;;;;;5.55;2.10;;;24.70;99.90;;;;;;4893370;29;20049;-80
2023/07/31 12:58:19;;;;;;;4.07;1.95;;;24.70;99.90;;;;;;4892216;29;20052;-81
2023/07/31 13:00:45;;;;;;;4.70;1.95;;;24.70;99.90;;;;;;4890905;29;20076;-80
2023/07/31 13:03:12;;;;;;;4.88;2.10;;;24.80;99.90;;;;;;4893984;29;20112;-81
2023/07/31 13:05:39;;;;;;;5.72;1.95;;;24.80;99.90;;;;;;4891338;29;20081;-80
2023/07/31 13:08:06;;;;;;;4.00;2.00;;;24.70;99.90;;;;;;4891519;29;20116;-81
2023/07/31 13:10:32;;;;;;;4.70;1.95;;;24.70;99.90;;;;;;4892666;29;20049;-80
2023/07/31 13:12:59;;;;;;;7.35;2.22;;;24.70;99.90;;;;;;4894418;29;20055;-81
2023/07/31 13:15:26;;;;;;;8.30;1.98;;;24.60;99.90;;;;;;4892499;29;20104;-80
2023/07/31 13:17:53;;;;;;;5.40;2.10;;;24.70;99.90;;;;;;4889415;29;20497;-79
2023/07/31 13:20:19;;;;;;;5.10;2.20;;;24.70;99.90;;;;;;4893159;29;20135;-81
2023/07/31 13:22:46;;;;;;;5.07;2.28;;;24.70;99.90;;;;;;4892690;29;20048;-80
2023/07/31 13:25:13;;;;;;;4.30;2.10;;;24.70;99.90;;;;;;4894600;29;20093;-81
2023/07/31 13:27:40;;;;;;;3.92;2.08;;;24.80;99.90;;;;;;4890881;29;20512;-81
2023/07/31 13:30:07;;;;;;;3.58;2.13;;;25.00;99.90;;;;;;4892617;29;20045;-81
2023/07/31 13:32:38;;;;;;;9.00;2.20;;;25.10;99.90;;;;;;4894622;29;20462;-81
2023/07/31 13:35:06;;;;;;;5.75;2.10;;;25.20;99.90;;;;;;4892040;29;20060;-81
2023/07/31 13:37:33;;;;;;;2.63;1.73;;;25.30;99.90;;;;;;4909032;29;20057;-80
2023/07/31 13:40:00;;;;;;;4.22;1.95;;;25.40;99.90;;;;;;4901662;29;20052;-80
2023/07/31 13:42:28;;;;;;;4.10;2.47;;;25.50;99.90;;;;;;4908033;29;20132;-81
2023/07/31 13:44:56;;;;;;;3.38;2.38;;;25.60;99.90;;;;;;4907833;29;20048;-81
2023/07/31 13:47:23;;;;;;;4.13;2.10;;;25.70;99.90;;;;;;4908161;29;20108;-80
2023/07/31 13:49:49;;;;;;;5.13;1.90;;;25.80;99.90;;;;;;4901725;29;20052;-79
2023/07/31 13:52:16;;;;;;;7.15;2.33;;;25.80;99.90;;;;;;4903589;29;20044;-81
2023/07/31 13:54:43;;;;;;;3.83;2.00;;;25.90;99.90;;;;;;4902855;29;20049;-80
2023/07/31 13:57:10;;;;;;;5.25;2.00;;;25.90;99.90;;;;;;4891281;29;20481;-80
2023/07/31 13:59:37;;;;;;;6.57;2.28;;;25.90;99.90;;;;;;4893380;29;20044;-80
2023/07/31 14:02:05;;;;;;;5.50;2.20;;;25.90;99.90;;;;;;4893071;29;20052;-79
2023/07/31 14:04:32;;;;;;;5.20;2.05;;;25.90;99.90;;;;;;4894048;29;20445;-80
2023/07/31 14:06:58;;;;;;;4.60;1.95;;;25.90;99.90;;;;;;4891248;29;20525;-80
2023/07/31 14:09:26;;;;;;;4.57;2.22;;;25.90;99.90;;;;;;4892275;29;20473;-79
2023/07/31 14:11:53;;;;;;;5.78;1.90;;;26.00;99.90;;;;;;4892732;29;20048;-80
2023/07/31 14:14:19;;;;;;;5.00;2.10;;;26.00;99.90;;;;;;4891446;29;20505;-80
2023/07/31 14:16:46;;;;;;;2.92;1.80;;;26.00;99.90;;;;;;4906023;29;20105;-80
2023/07/31 14:19:13;;;;;;;5.65;2.17;;;26.00;99.90;;;;;;4891828;29;20634;-80
2023/07/31 14:21:40;;;;;;;5.60;2.20;;;26.00;99.90;;;;;;4895122;29;20057;-80
2023/07/31 14:24:07;;;;;;;3.50;2.00;;;26.00;99.90;;;;;;4893082;29;20053;-80
2023/07/31 14:26:33;;;;;;;3.28;2.00;;;26.10;99.90;;;;;;4892947;29;20537;-80
2023/07/31 14:29:00;;;;;;;4.47;2.53;;;26.10;99.90;;;;;;4891578;29;20052;-81
2023/07/31 14:31:27;;;;;;;3.95;2.17;;;26.10;99.90;;;;;;4926476;23;20539;-81
2023/07/31 14:33:54;;;;;;;5.30;2.13;;;26.00;99.90;;;;;;4914518;29;20048;-81
2023/07/31 14:36:23;;;;;;;7.38;2.40;;;26.00;99.90;;;;;;4913296;29;20052;-81
2023/07/31 14:38:50;;;;;;;4.45;1.70;;;26.00;99.90;;;;;;4912622;29;20091;-81
2023/07/31 14:41:17;;;;;;;5.80;1.95;;;26.00;99.90;;;;;;4914790;29;20051;-81
2023/07/31 14:43:44;;;;;;;5.15;2.17;;;26.00;99.90;;;;;;4913670;29;20076;-81
2023/07/31 14:46:11;;;;;;;4.28;2.13;;;26.00;99.90;;;;;;4911899;29;20053;-81
2023/07/31 14:48:37;;;;;;;6.15;1.60;;;26.00;99.90;;;;;;4913888;29;20077;-82
2023/07/31 14:51:04;;;;;;;5.57;1.67;;;26.00;99.90;;;;;;4912814;29;20538;-81
2023/07/31 14:53:31;;;;;;;4.75;2.08;;;26.00;99.90;;;;;;4912443;29;20061;-82
2023/07/31 14:55:57;;;;;;;7.32;1.90;;;26.00;99.90;;;;;;4913633;29;20044;-82
2023/07/31 14:58:24;;;;;;;6.47;1.92;;;26.00;99.90;;;;;;4914768;29;20052;-82
2023/07/31 15:00:51;;;;;;;4.13;2.03;;;26.00;99.90;;;;;;4910459;29;20048;-81
2023/07/31 15:03:18;;;;;;;3.28;1.67;;;26.00;99.90;;;;;;4914816;29;20081;-79
2023/07/31 15:05:45;;;;;;;4.03;1.75;;;25.90;99.90;;;;;;4918733;29;20084;-81
2023/07/31 15:08:11;;;;;;;9.95;1.70;;;25.90;99.90;;;;;;4918344;29;20048;-82
2023/07/31 15:10:38;;;;;;;4.22;1.73;;;25.90;99.90;;;;;;4905030;29;20048;-83
2023/07/31 15:13:05;;;;;;;3.60;2.00;;;25.90;99.90;;;;;;4910449;29;20044;-81
2023/07/31 15:15:32;;;;;;;4.90;1.98;;;25.90;99.90;;;;;;4910260;29;20500;-81
2023/07/31 15:17:58;;;;;;;3.13;1.70;;;25.90;99.90;;;;;;4905533;29;20099;-81
2023/07/31 15:20:25;;;;;;;3.58;1.75;;;25.90;99.90;;;;;;4905629;29;20053;-81
2023/07/31 15:22:52;;;;;;;4.85;2.05;;;25.90;99.90;;;;;;4916978;29;20455;-81
2023/07/31 15:25:19;;;;;;;5.20;1.90;;;25.80;99.90;;;;;;4906468;29;20073;-81
2023/07/31 15:27:45;;;;;;;5.60;1.80;;;25.90;99.90;;;;;;4913051;29;20492;-82
2023/07/31 15:30:12;;;;;;;3.95;1.52;;;25.80;99.90;;;;;;4913951;29;20098;-80
2023/07/31 15:32:39;;;;;;;5.07;1.73;;;25.80;99.90;;;;;;4908288;29;20100;-81
2023/07/31 15:35:07;;;;;;;5.43;1.92;;;25.70;99.90;;;;;;4907357;29;20051;-80
2023/07/31 15:37:33;;;;;;;6.10;1.98;;;25.70;99.90;;;;;;4913993;29;20254;-81
2023/07/31 15:40:00;;;;;;;6.13;1.80;;;25.60;99.90;;;;;;4910707;29;20048;-82
2023/07/31 15:42:27;;;;;;;4.80;2.10;;;25.60;99.90;;;;;;4912321;29;20107;-80
2023/07/31 15:44:54;;;;;;;4.45;2.63;;;25.60;99.90;;;;;;4915477;29;20072;-80
2023/07/31 15:47:20;;;;;;;6.07;1.65;;;25.50;99.90;;;;;;4909838;29;20048;-82
2023/07/31 15:49:47;;;;;;;5.18;1.73;;;25.50;99.90;;;;;;4911171;29;20048;-81
2023/07/31 15:52:14;;;;;;;4.32;2.30;;;25.50;99.90;;;;;;4910117;29;20053;-82
2023/07/31 15:54:41;;;;;;;5.85;2.17;;;25.50;99.90;;;;;;4911928;29;20056;-81
2023/07/31 15:57:08;;;;;;;4.72;1.85;;;25.40;99.90;;;;;;4914119;29;20048;-82
2023/07/31 15:59:34;;;;;;;4.82;1.80;;;25.40;99.90;;;;;;4912730;29;20053;-82
2023/07/31 16:02:01;;;;;;;5.47;2.38;;;25.40;99.90;;;;;;4916407;29;20056;-81
2023/07/31 16:04:28;;;;;;;5.13;2.03;;;25.40;99.90;;;;;;4912707;29;20500;-83
2023/07/31 16:06:55;;;;;;;4.85;2.20;;;25.40;99.90;;;;;;4910882;29;20487;-82
2023/07/31 16:09:22;;;;;;;9.50;1.92;;;25.40;99.90;;;;;;4911667;29;20479;-83
2023/07/31 16:11:48;;;;;;;5.13;2.00;;;25.40;99.90;;;;;;4910609;29;20100;-81
2023/07/31 16:14:15;;;;;;;5.05;1.88;;;25.40;99.90;;;;;;4911180;29;20048;-81
2023/07/31 16:16:42;;;;;;;3.85;1.52;;;25.40;99.90;;;;;;4911424;29;20048;-82
2023/07/31 16:19:09;;;;;;;4.13;1.80;;;25.40;99.90;;;;;;4911460;29;20063;-82
2023/07/31 16:21:36;;;;;;;5.47;2.20;;;25.40;99.90;;;;;;4910212;29;20104;-82
2023/07/31 16:24:03;;;;;;;3.42;2.03;;;25.40;99.90;;;;;;4907064;29;20061;-80
2023/07/31 16:26:31;;;;;;;4.13;1.80;;;25.40;99.90;;;;;;4912025;29;20757;-82
2023/07/31 16:28:58;;;;;;;5.40;1.83;;;25.50;99.90;;;;;;4908311;29;20053;-82
2023/07/31 16:31:25;;;;;;;5.55;1.50;;;25.60;99.90;;;;;;4910055;29;20144;-82
2023/07/31 16:33:52;;;;;;;3.17;1.75;;;25.60;99.90;;;;;;4911252;29;20468;-82
2023/07/31 16:36:21;;;;;;;3.58;1.80;;;25.70;99.90;;;;;;4906216;29;20112;-82
2023/07/31 16:38:49;;;;;;;8.50;2.10;;;25.70;99.90;;;;;;4910732;29;20049;-80
2023/07/31 16:41:15;;;;;;;6.93;2.70;;;25.70;99.90;;;;;;4913947;29;20058;-83
2023/07/31 16:43:42;;;;;;;3.72;1.35;;;25.70;99.90;;;;;;4910912;29;20058;-82
2023/07/31 16:46:09;;;;;;;3.55;1.73;;;25.70;99.90;;;;;;4911782;29;20060;-81
2023/07/31 16:48:36;;;;;;;5.43;1.90;;;25.70;99.90;;;;;;4907273;29;20143;-81
2023/07/31 16:51:04;;;;;;;3.10;1.70;;;25.60;99.90;;;;;;4913744;29;20103;-81
2023/07/31 16:53:31;;;;;;;4.68;1.85;;;25.60;99.90;;;;;;4915161;29;20052;-80
2023/07/31 16:55:59;;;;;;;5.88;1.90;;;25.50;99.90;;;;;;4913937;29;20053;-80
2023/07/31 16:58:26;;;;;;;7.50;2.10;;;25.50;99.90;;;;;;4912378;29;20060;-81
2023/07/31 17:00:53;;;;;;;2.65;1.88;;;25.40;99.90;;;;;;4907311;29;20068;-81
2023/07/31 17:03:19;;;;;;;2.47;1.83;;;25.40;99.90;;;;;;4911465;29;20701;-81
2023/07/31 17:05:47;;;;;;;4.38;1.95;;;25.30;99.90;;;;;;4913957;29;20052;-81
2023/07/31 17:08:14;;;;;;;4.75;1.98;;;25.30;99.90;;;;;;4911641;29;20068;-82
2023/07/31 17:10:41;;;;;;;4.35;2.05;;;25.20;99.90;;;;;;4911035;29;20052;-83
2023/07/31 17:13:08;;;;;;;4.65;1.98;;;25.20;99.90;;;;;;4911739;29;20057;-82
2023/07/31 17:15:35;;;;;;;6.07;1.95;;;25.10;99.90;;;;;;4913307;29;20100;-81
2023/07/31 17:18:02;;;;;;;3.03;1.63;;;25.00;99.90;;;;;;4910165;29;20048;-81
2023/07/31 17:20:31;;;;;;;4.53;2.00;;;25.00;99.90;;;;;;4904953;29;20049;-82
2023/07/31 17:22:58;;;;;;;7.72;1.98;;;25.00;99.90;;;;;;4913468;29;20044;-82
2023/07/31 17:25:25;;;;;;;4.80;1.98;;;24.90;99.90;;;;;;4905528;29;20073;-82
2023/07/31 17:27:52;;;;;;;7.13;2.65;;;24.90;99.90;;;;;;4909106;29;20044;-82
2023/07/31 17:30:19;;;;;;;4.72;2.50;;;24.80;99.90;;;;;;4915313;29;20077;-82
2023/07/31 17:32:46;;;;;;;3.40;1.90;;;24.90;99.90;;;;;;4914872;29;20077;-82
2023/07/31 17:35:13;;;;;;;5.88;2.30;;;24.80;99.90;;;;;;4910668;29;20055;-82
2023/07/31 17:37:39;;;;;;;5.45;1.90;;;24.80;99.90;;;;;;4917709;29;20044;-82
2023/07/31 17:40:07;;;;;;;5.32;1.80;;;24.70;99.90;;;;;;4912706;29;20052;-81
2023/07/31 17:42:33;;;;;;;4.25;2.03;;;24.70;99.90;;;;;;4910592;29;20475;-82
2023/07/31 17:45:00;;;;;;;4.90;2.25;;;24.70;99.90;;;;;;4913990;29;20043;-82
2023/07/31 17:47:27;;;;;;;3.17;2.00;;;24.70;99.90;;;;;;4914570;29;20086;-82
2023/07/31 17:49:53;;;;;;;7.15;2.03;;;24.70;99.90;;;;;;4910343;29;20064;-80
2023/07/31 17:52:21;;;;;;;7.30;2.30;;;24.60;99.90;;;;;;4915768;29;20518;-82
2023/07/31 17:54:51;;;;;;;7.55;2.05;;;24.60;99.90;;;;;;4912911;29;20117;-82
2023/07/31 17:57:18;;;;;;;3.75;1.95;;;24.50;99.90;;;;;;4912273;29;20128;-82
2023/07/31 17:59:44;;;;;;;4.47;2.08;;;24.50;99.90;;;;;;4914006;29;20044;-82
2023/07/31 18:02:11;;;;;;;3.40;1.80;;;24.50;99.90;;;;;;4913016;29;20113;-82
2023/07/31 18:04:38;;;;;;;3.58;2.03;;;24.50;99.90;;;;;;4912745;29;20131;-82
2023/07/31 18:07:05;;;;;;;5.28;2.25;;;24.40;99.90;;;;;;4914965;29;20052;-82
2023/07/31 18:09:34;;;;;;;5.63;1.80;;;24.40;99.90;;;;;;4910251;29;20107;-81
2023/07/31 18:12:01;;;;;;;4.18;1.85;;;24.40;99.90;;;;;;4913707;29;20108;-82
2023/07/31 18:14:28;;;;;;;5.68;2.20;;;24.40;99.90;;;;;;4915042;29;20499;-82
2023/07/31 18:16:54;;;;;;;3.15;2.17;;;24.30;99.90;;;;;;4909637;29;20081;-84
2023/07/31 18:19:21;;;;;;;3.88;1.90;;;24.30;99.90;;;;;;4904079;29;20142;-82
2023/07/31 18:21:48;;;;;;;6.75;2.13;;;24.20;99.90;;;;;;4908337;29;20544;-83
2023/07/31 18:24:15;;;;;;;4.95;2.03;;;24.10;99.90;;;;;;4895090;29;20111;-82
2023/07/31 18:26:41;;;;;;;5.60;1.92;;;24.10;99.90;;;;;;4898691;29;20049;-81
2023/07/31 18:29:09;;;;;;;2.60;1.77;;;24.10;99.90;;;;;;4901837;29;20052;-79
2023/07/31 18:31:35;;;;;;;4.63;1.90;;;24.00;99.90;;;;;;4913446;29;20071;-82
2023/07/31 18:34:02;;;;;;;3.80;1.73;;;24.00;99.90;;;;;;4905260;29;20048;-82
2023/07/31 18:36:29;;;;;;;3.17;1.73;;;23.90;99.90;;;;;;4908336;29;20044;-82
2023/07/31 18:38:56;;;;;;;5.75;1.67;;;23.90;99.90;;;;;;4906493;29;20044;-82
2023/07/31 18:41:24;;;;;;;4.80;2.30;;;23.90;99.90;;;;;;4908393;29;20053;-81
2023/07/31 18:43:50;;;;;;;4.47;1.50;;;23.90;99.90;;;;;;4914360;29;20060;-80
2023/07/31 18:46:17;;;;;;;2.90;1.83;;;23.80;99.90;;;;;;4911505;29;20084;-81
2023/07/31 18:48:44;;;;;;;4.15;1.80;;;23.70;99.90;;;;;;4916811;29;20107;-81
2023/07/31 18:51:11;;;;;;;6.55;2.33;;;23.70;99.90;;;;;;4909044;29;20080;-81
2023/07/31 18:53:37;;;;;;;3.50;1.90;;;23.60;99.90;;;;;;4907804;29;20500;-82
2023/07/31 18:56:04;;;;;;;3.85;2.00;;;23.60;99.90;;;;;;4903829;29;20469;-82